createdAt,value
2022-08-08T00:01:08.157Z,99522.13
2022-08-08T00:03:47.584Z,99525.28
2022-08-08T00:06:28.556Z,99519.63
2022-08-08T00:09:07.758Z,99523.94
2022-08-08T00:11:47.133Z,99518.81
2022-08-08T00:14:56.866Z,99512.03
2022-08-08T00:17:48.243Z,99517.59
2022-08-08T00:20:22.491Z,99519.03
2022-08-08T00:22:54.225Z,99524.84
2022-08-08T00:25:24.580Z,99515.25
2022-08-08T00:27:59.176Z,99512.06
2022-08-08T00:30:32.333Z,99520.16
2022-08-08T00:33:05.776Z,99517.63
2022-08-08T00:35:37.467Z,99521.09
2022-08-08T00:38:31.358Z,99518.53
2022-08-08T00:41:54.762Z,99522.72
2022-08-08T00:44:44.075Z,99513.69
2022-08-08T00:48:05.261Z,99517.69
2022-08-08T00:51:25.579Z,99516.38
2022-08-08T00:54:51.119Z,99516.13
2022-08-08T00:58:12.620Z,99514.00
2022-08-08T01:00:50.562Z,99508.88
2022-08-08T01:04:01.763Z,99493.91
2022-08-08T01:06:41.015Z,99504.44
2022-08-08T01:09:53.578Z,99504.25
2022-08-08T01:12:41.976Z,99496.91
2022-08-08T01:15:54.132Z,99504.75
2022-08-08T01:18:53.321Z,99500.47
2022-08-08T01:22:12.119Z,99496.22
2022-08-08T01:24:58.082Z,99502.09
2022-08-08T01:28:02.264Z,99483.50
2022-08-08T01:31:06.108Z,99489.69
2022-08-08T01:34:06.105Z,99508.38
2022-08-08T01:37:13.663Z,99505.50
2022-08-08T01:40:14.649Z,99509.78
2022-08-08T01:42:48.626Z,99495.09
2022-08-08T01:45:50.474Z,99496.53
2022-08-08T01:48:35.338Z,99489.41
2022-08-08T01:52:41.203Z,99486.03
2022-08-08T01:55:26.590Z,99494.44
2022-08-08T01:57:33.758Z,99499.69
2022-08-08T02:00:19.206Z,99497.75
2022-08-08T02:03:01.705Z,99505.66
2022-08-08T02:05:56.786Z,99490.00
2022-08-08T02:08:39.739Z,99496.03
2022-08-08T02:11:23.762Z,99487.53
2022-08-08T02:14:27.434Z,99496.47
2022-08-08T02:17:00.149Z,99490.72
2022-08-08T02:19:57.091Z,99500.47
2022-08-08T02:22:45.806Z,99509.53
2022-08-08T02:25:32.857Z,99510.53
2022-08-08T02:28:17.523Z,99513.75
2022-08-08T02:31:04.752Z,99515.25
2022-08-08T02:34:08.067Z,99519.75
2022-08-08T02:36:40.837Z,99523.56
2022-08-08T02:39:40.823Z,99522.13
2022-08-08T02:42:47.563Z,99532.59
2022-08-08T02:46:20.888Z,99516.91
2022-08-08T02:49:47.336Z,99523.25
2022-08-08T02:52:34.633Z,99521.75
2022-08-08T02:55:36.380Z,99529.84
2022-08-08T02:58:36.918Z,99523.00
2022-08-08T03:01:47.398Z,99529.22
2022-08-08T03:05:10.521Z,99523.25
2022-08-08T03:08:35.602Z,99518.34
2022-08-08T03:11:59.794Z,99527.50
2022-08-08T03:16:00.053Z,99530.44
2022-08-08T03:17:43.357Z,99530.66
2022-08-08T03:20:27.900Z,99525.94
2022-08-08T03:23:00.544Z,99532.16
2022-08-08T03:25:36.091Z,99526.88
2022-08-08T03:28:07.755Z,99535.56
2022-08-08T03:30:35.748Z,99526.69
2022-08-08T03:33:55.468Z,99540.94
2022-08-08T03:36:10.187Z,99538.19
2022-08-08T03:38:55.055Z,99551.94
2022-08-08T03:42:28.489Z,99541.59
2022-08-08T03:44:25.609Z,99530.72
2022-08-08T03:46:53.916Z,99542.72
2022-08-08T03:49:57.546Z,99544.38
2022-08-08T03:52:13.165Z,99553.97
2022-08-08T03:55:02.186Z,99545.22
2022-08-08T03:58:34.216Z,99533.78
2022-08-08T04:00:21.046Z,99553.00
2022-08-08T04:02:57.568Z,99552.13
2022-08-08T04:05:28.760Z,99553.88
2022-08-08T04:07:57.989Z,99547.31
2022-08-08T04:10:32.084Z,99546.53
2022-08-08T04:13:00.785Z,99557.78
2022-08-08T04:15:38.369Z,99553.22
2022-08-08T04:18:16.589Z,99552.91
2022-08-08T04:20:45.198Z,99557.09
2022-08-08T04:23:13.443Z,99557.31
2022-08-08T04:25:44.576Z,99558.03
2022-08-08T04:28:36.299Z,99560.91
2022-08-08T04:31:06.586Z,99567.28
2022-08-08T04:33:41.839Z,99564.19
2022-08-08T04:36:10.087Z,99559.16
2022-08-08T04:38:38.595Z,99553.91
2022-08-08T04:41:17.829Z,99555.16
2022-08-08T04:43:54.199Z,99554.13
2022-08-08T04:46:25.376Z,99558.84
2022-08-08T04:49:01.198Z,99563.31
2022-08-08T04:51:55.052Z,99564.69
2022-08-08T04:54:39.282Z,99554.31
2022-08-08T04:57:07.106Z,99558.53
2022-08-08T04:59:42.247Z,99568.44
2022-08-08T05:02:13.655Z,99548.91
2022-08-08T05:04:44.536Z,99556.59
2022-08-08T05:07:14.871Z,99571.97
2022-08-08T05:09:43.501Z,99565.81
2022-08-08T05:12:20.386Z,99572.63
2022-08-08T05:14:48.713Z,99572.25
2022-08-08T05:17:20.466Z,99582.84
2022-08-08T05:20:11.161Z,99556.56
2022-08-08T05:22:40.185Z,99571.25
2022-08-08T05:25:08.966Z,99586.13
2022-08-08T05:27:41.651Z,99570.13
2022-08-08T05:30:12.943Z,99559.50
2022-08-08T05:32:42.341Z,99559.41
2022-08-08T05:35:12.762Z,99580.19
2022-08-08T05:37:52.688Z,99580.41
2022-08-08T05:40:28.149Z,99585.34
2022-08-08T05:43:39.893Z,99577.81
2022-08-08T05:45:53.349Z,99591.94
2022-08-08T05:48:28.381Z,99579.31
2022-08-08T05:51:14.597Z,99592.28
2022-08-08T05:54:24.714Z,99591.47
2022-08-08T05:56:38.790Z,99592.28
2022-08-08T06:00:00.866Z,99580.66
2022-08-08T06:02:33.712Z,99596.53
2022-08-08T06:05:06.697Z,99598.00
2022-08-08T06:08:01.997Z,99596.78
2022-08-08T06:10:33.556Z,99582.38
2022-08-08T06:13:02.642Z,99610.03
2022-08-08T06:15:51.257Z,99587.25
2022-08-08T06:18:22.235Z,99593.09
2022-08-08T06:20:56.359Z,99618.09
2022-08-08T06:23:49.101Z,99593.81
2022-08-08T06:26:38.267Z,99598.59
2022-08-08T06:29:26.694Z,99615.94
2022-08-08T06:32:11.534Z,99613.97
2022-08-08T06:34:56.352Z,99595.66
2022-08-08T06:37:40.581Z,99622.50
2022-08-08T06:40:16.573Z,99589.91
2022-08-08T06:42:53.369Z,99615.47
2022-08-08T06:45:23.075Z,99607.22
2022-08-08T06:48:00.702Z,99617.88
2022-08-08T06:50:33.793Z,99611.38
2022-08-08T06:53:14.094Z,99601.91
2022-08-08T06:55:46.979Z,99610.72
2022-08-08T06:58:22.764Z,99614.53
2022-08-08T07:01:00.578Z,99625.75
2022-08-08T07:04:39.040Z,99621.88
2022-08-08T07:06:34.336Z,99623.97
2022-08-08T07:09:20.796Z,99622.66
2022-08-08T07:11:51.975Z,99615.16
2022-08-08T07:14:22.868Z,99608.25
2022-08-08T07:17:01.797Z,99621.84
2022-08-08T07:19:40.194Z,99627.56
2022-08-08T07:22:12.095Z,99623.88
2022-08-08T07:24:53.055Z,99613.94
2022-08-08T07:27:27.882Z,99612.50
2022-08-08T07:30:25.326Z,99616.91
2022-08-08T07:32:59.294Z,99613.38
2022-08-08T07:35:31.212Z,99631.84
2022-08-08T07:38:18.433Z,99620.44
2022-08-08T07:40:54.248Z,99611.84
2022-08-08T07:43:37.274Z,99629.75
2022-08-08T07:46:23.079Z,99632.16
2022-08-08T07:48:52.605Z,99620.78
2022-08-08T07:51:23.482Z,99640.69
2022-08-08T07:54:26.601Z,99627.69
2022-08-08T07:57:09.175Z,99630.03
2022-08-08T08:00:00.747Z,99629.81
2022-08-08T08:02:38.943Z,99614.84
2022-08-08T08:05:15.630Z,99618.09
2022-08-08T08:07:53.310Z,99621.44
2022-08-08T08:10:30.234Z,99613.44
2022-08-08T08:13:25.657Z,99604.53
2022-08-08T08:16:12.947Z,99603.91
2022-08-08T08:18:51.842Z,99618.06
2022-08-08T08:21:44.325Z,99615.59
2022-08-08T08:24:18.459Z,99611.59
2022-08-08T08:26:52.837Z,99612.72
2022-08-08T08:29:24.133Z,99609.97
2022-08-08T08:31:58.157Z,99614.72
2022-08-08T08:34:32.314Z,99624.66
2022-08-08T08:37:03.468Z,99615.03
2022-08-08T08:39:59.659Z,99613.84
2022-08-08T08:42:32.143Z,99618.38
2022-08-08T08:45:21.385Z,99613.94
2022-08-08T08:47:54.273Z,99621.84
2022-08-08T08:50:33.608Z,99635.25
2022-08-08T08:53:28.178Z,99625.34
2022-08-08T08:56:02.100Z,99631.63
2022-08-08T08:58:33.360Z,99604.78
2022-08-08T09:01:10.473Z,99610.69
2022-08-08T09:03:46.474Z,99630.25
2022-08-08T09:06:28.562Z,99626.16
2022-08-08T09:09:04.835Z,99629.06
2022-08-08T09:11:47.824Z,99605.34
2022-08-08T09:14:25.903Z,99605.50
2022-08-08T09:16:55.442Z,99606.09
2022-08-08T09:21:58.976Z,99590.31
2022-08-08T09:22:27.059Z,99591.44
2022-08-08T09:24:56.734Z,99595.28
2022-08-08T09:27:56.893Z,99588.53
2022-08-08T09:30:22.185Z,99612.75
2022-08-08T09:33:12.525Z,99603.59
2022-08-08T09:35:49.104Z,99611.00
2022-08-08T09:38:32.964Z,99599.06
2022-08-08T09:41:06.745Z,99595.94
2022-08-08T09:44:05.155Z,99619.91
2022-08-08T09:46:32.097Z,99597.66
2022-08-08T09:49:18.054Z,99621.03
2022-08-08T09:52:06.698Z,99619.94
2022-08-08T09:54:38.451Z,99610.97
2022-08-08T09:57:11.832Z,99599.50
2022-08-08T10:00:02.336Z,99622.16
2022-08-08T10:02:37.723Z,99595.66
2022-08-08T10:05:14.933Z,99607.19
2022-08-08T10:08:00.068Z,99620.34
2022-08-08T10:10:31.670Z,99593.78
2022-08-08T10:13:06.060Z,99602.84
2022-08-08T10:16:00.519Z,99607.63
2022-08-08T10:18:31.150Z,99606.00
2022-08-08T10:21:23.030Z,99595.56
2022-08-08T10:23:57.847Z,99596.44
2022-08-08T10:26:59.430Z,99581.91
2022-08-08T10:29:30.249Z,99584.97
2022-08-08T10:32:39.208Z,99596.13
2022-08-08T10:35:10.618Z,99604.84
2022-08-08T10:37:40.295Z,99596.84
2022-08-08T10:40:17.373Z,99610.19
2022-08-08T10:42:50.259Z,99589.63
2022-08-08T10:45:18.234Z,99597.34
2022-08-08T10:47:55.676Z,99602.91
2022-08-08T10:50:31.161Z,99594.13
2022-08-08T10:53:02.934Z,99592.84
2022-08-08T10:55:40.536Z,99596.75
2022-08-08T10:58:11.968Z,99589.84
2022-08-08T11:00:53.136Z,99595.28
2022-08-08T11:04:00.774Z,99594.69
2022-08-08T11:06:31.718Z,99586.91
2022-08-08T11:09:03.676Z,99595.56
2022-08-08T11:12:06.286Z,99592.81
2022-08-08T11:14:39.818Z,99574.69
2022-08-08T11:17:15.160Z,99595.09
2022-08-08T11:19:46.591Z,99579.41
2022-08-08T11:22:26.882Z,99579.50
2022-08-08T11:24:56.117Z,99592.06
2022-08-08T11:27:29.313Z,99580.78
2022-08-08T11:30:24.697Z,99582.41
2022-08-08T11:32:57.327Z,99573.19
2022-08-08T11:35:38.468Z,99565.53
2022-08-08T11:38:38.721Z,99573.66
2022-08-08T11:40:59.181Z,99580.56
2022-08-08T11:43:39.515Z,99591.53
2022-08-08T11:46:17.645Z,99570.41
2022-08-08T11:48:47.806Z,99587.41
2022-08-08T11:51:30.518Z,99583.56
2022-08-08T11:54:09.919Z,99576.66
2022-08-08T11:56:56.397Z,99587.66
2022-08-08T11:59:41.771Z,99567.41
2022-08-08T12:02:32.157Z,99577.66
2022-08-08T12:05:03.242Z,99563.16
2022-08-08T12:07:35.561Z,99565.50
2022-08-08T12:10:12.241Z,99568.00
2022-08-08T12:12:46.081Z,99555.00
2022-08-08T12:15:28.242Z,99565.03
2022-08-08T12:17:56.219Z,99560.22
2022-08-08T12:24:00.174Z,99565.19
2022-08-08T12:26:37.835Z,99568.88
2022-08-08T12:29:25.804Z,99553.09
2022-08-08T12:32:13.279Z,99552.34
2022-08-08T12:34:51.162Z,99560.91
2022-08-08T12:37:22.917Z,99547.53
2022-08-08T12:39:59.746Z,99545.56
2022-08-08T12:42:33.765Z,99558.94
2022-08-08T12:45:54.888Z,99542.28
2022-08-08T12:48:10.002Z,99548.38
2022-08-08T12:50:54.684Z,99543.06
2022-08-08T12:53:37.841Z,99539.84
2022-08-08T12:56:18.370Z,99543.91
2022-08-08T12:58:49.345Z,99542.25
2022-08-08T13:01:28.824Z,99545.09
2022-08-08T13:04:19.110Z,99549.97
2022-08-08T13:06:58.688Z,99534.19
2022-08-08T13:09:33.581Z,99529.34
2022-08-08T13:12:29.558Z,99530.97
2022-08-08T13:14:58.964Z,99542.34
2022-08-08T13:18:08.522Z,99532.22
2022-08-08T13:20:20.083Z,99530.16
2022-08-08T13:22:48.654Z,99539.44
2022-08-08T13:25:17.737Z,99533.31
2022-08-08T13:27:54.868Z,99523.19
2022-08-08T13:30:26.663Z,99539.25
2022-08-08T13:32:57.318Z,99529.41
2022-08-08T13:35:29.567Z,99532.97
2022-08-08T13:38:12.220Z,99539.78
2022-08-08T13:40:44.885Z,99538.56
2022-08-08T13:43:15.987Z,99540.81
2022-08-08T13:45:47.541Z,99542.47
2022-08-08T13:48:19.604Z,99543.50
2022-08-08T13:50:57.745Z,99524.25
2022-08-08T13:53:53.190Z,99529.88
2022-08-08T13:56:32.198Z,99532.06
2022-08-08T13:59:01.855Z,99524.94
2022-08-08T14:01:42.316Z,99520.19
2022-08-08T14:04:22.949Z,99515.59
2022-08-08T14:06:51.352Z,99543.09
2022-08-08T14:09:29.861Z,99523.13
2022-08-08T14:11:59.421Z,99517.81
2022-08-08T14:14:43.134Z,99515.50
2022-08-08T14:17:22.741Z,99513.25
2022-08-08T14:20:07.430Z,99527.72
2022-08-08T14:22:43.148Z,99520.84
2022-08-08T14:25:15.493Z,99532.50
2022-08-08T14:27:59.721Z,99522.00
2022-08-08T14:30:35.028Z,99523.16
2022-08-08T14:33:03.089Z,99519.41
2022-08-08T14:35:44.433Z,99531.41
2022-08-08T14:38:34.704Z,99550.38
2022-08-08T14:41:18.618Z,99525.91
2022-08-08T14:44:11.132Z,99531.00
2022-08-08T14:46:41.941Z,99516.72
2022-08-08T14:49:20.384Z,99523.22
2022-08-08T14:52:08.374Z,99527.13
2022-08-08T14:54:47.719Z,99510.88
2022-08-08T14:57:17.421Z,99533.09
2022-08-08T14:59:56.028Z,99532.38
2022-08-08T15:02:36.253Z,99536.72
2022-08-08T15:05:33.954Z,99542.84
2022-08-08T15:16:51.024Z,99539.84
2022-08-08T15:19:23.823Z,99541.38
2022-08-08T15:21:59.651Z,99546.50
2022-08-08T15:24:32.527Z,99545.19
2022-08-08T15:27:12.089Z,99545.53
2022-08-08T15:29:51.371Z,99542.66
2022-08-08T15:32:30.524Z,99527.84
2022-08-08T15:35:01.474Z,99547.88
2022-08-08T15:37:33.114Z,99516.56
2022-08-08T15:40:01.800Z,99548.22
2022-08-08T15:42:41.472Z,99521.16
2022-08-08T15:45:13.028Z,99516.81
2022-08-08T15:47:41.188Z,99527.75
2022-08-08T15:50:52.723Z,99524.94
2022-08-08T15:53:23.755Z,99533.44
2022-08-08T15:55:54.112Z,99514.00
2022-08-08T15:58:28.091Z,99516.44
2022-08-08T16:01:00.085Z,99525.72
2022-08-08T16:03:28.269Z,99528.56
2022-08-08T16:06:02.076Z,99530.59
2022-08-08T16:08:30.317Z,99527.75
2022-08-08T16:13:02.012Z,99514.81
2022-08-08T16:13:49.315Z,99522.84
2022-08-08T16:16:22.194Z,99526.53
2022-08-08T16:18:56.382Z,99523.69
2022-08-08T16:21:31.556Z,99541.44
2022-08-08T16:24:01.288Z,99537.81
2022-08-08T16:26:33.817Z,99541.84
2022-08-08T16:29:03.343Z,99543.88
2022-08-08T16:31:37.305Z,99534.53
2022-08-08T16:34:06.175Z,99526.06
2022-08-08T16:36:36.117Z,99543.00
2022-08-08T16:39:09.979Z,99523.56
2022-08-08T16:41:51.275Z,99536.88
2022-08-08T16:44:27.601Z,99537.72
2022-08-08T16:47:16.716Z,99550.34
2022-08-08T16:49:44.755Z,99554.81
2022-08-08T16:55:19.331Z,99538.63
2022-08-08T16:55:33.785Z,99557.28
2022-08-08T16:58:13.930Z,99543.56
2022-08-08T17:00:49.232Z,99548.03
2022-08-08T17:03:24.898Z,99545.13
2022-08-08T17:06:03.428Z,99548.75
2022-08-08T17:08:32.869Z,99538.63
2022-08-08T17:11:10.551Z,99549.06
2022-08-08T17:13:41.148Z,99547.78
2022-08-08T17:16:21.995Z,99555.41
2022-08-08T17:18:52.875Z,99550.84
2022-08-08T17:21:21.388Z,99552.34
2022-08-08T17:23:57.944Z,99551.13
2022-08-08T17:26:29.644Z,99547.47
2022-08-08T17:28:58.598Z,99540.09
2022-08-08T17:31:44.388Z,99541.97
2022-08-08T17:34:35.731Z,99549.50
2022-08-08T17:37:09.006Z,99548.41
2022-08-08T17:40:04.452Z,99571.88
2022-08-08T17:42:30.073Z,99564.47
2022-08-08T17:44:58.584Z,99559.88
2022-08-08T17:47:27.608Z,99555.28
2022-08-08T17:50:07.633Z,99556.78
2022-08-08T17:52:37.568Z,99558.28
2022-08-08T17:56:04.169Z,99571.47
2022-08-08T17:57:56.817Z,99561.88
2022-08-08T18:00:30.253Z,99575.44
2022-08-08T18:03:07.456Z,99564.38
2022-08-08T18:05:44.113Z,99549.09
2022-08-08T18:08:25.169Z,99562.09
2022-08-08T18:11:15.079Z,99560.38
2022-08-08T18:13:45.223Z,99569.00
2022-08-08T18:16:20.489Z,99581.75
2022-08-08T18:18:53.691Z,99569.28
2022-08-08T18:21:35.143Z,99592.28
2022-08-08T18:24:19.265Z,99597.78
2022-08-08T18:26:53.765Z,99603.22
2022-08-08T18:29:27.241Z,99610.94
2022-08-08T18:32:00.569Z,99596.56
2022-08-08T18:34:32.728Z,99603.03
2022-08-08T18:37:04.933Z,99598.34
2022-08-08T18:39:54.615Z,99617.16
2022-08-08T18:42:24.042Z,99615.28
2022-08-08T18:44:52.961Z,99618.91
2022-08-08T18:47:24.996Z,99634.19
2022-08-08T18:49:57.612Z,99622.44
2022-08-08T18:52:29.699Z,99637.38
2022-08-08T18:55:00.639Z,99634.81
2022-08-08T18:57:47.877Z,99635.28
2022-08-08T19:00:20.521Z,99628.78
2022-08-08T19:02:55.687Z,99640.72
2022-08-08T19:05:34.734Z,99631.00
2022-08-08T19:08:25.690Z,99647.34
2022-08-08T19:11:01.475Z,99640.38
2022-08-08T19:13:56.966Z,99620.53
2022-08-08T19:16:32.330Z,99619.00
2022-08-08T19:19:12.365Z,99643.06
2022-08-08T19:21:56.287Z,99627.00
2022-08-08T19:31:18.339Z,99643.72
2022-08-08T19:34:04.582Z,99649.31
2022-08-08T19:36:42.659Z,99624.28
2022-08-08T19:39:14.194Z,99612.88
2022-08-08T19:41:43.609Z,99641.78
2022-08-08T19:44:12.964Z,99645.28
2022-08-08T19:46:57.222Z,99630.78
2022-08-08T19:49:25.794Z,99640.94
2022-08-08T19:51:54.140Z,99631.03
2022-08-08T19:54:22.201Z,99638.97
2022-08-08T19:56:50.263Z,99652.28
2022-08-08T19:59:22.188Z,99651.34
2022-08-08T20:02:03.459Z,99637.66
2022-08-08T20:04:34.001Z,99664.84
2022-08-08T20:07:05.423Z,99655.03
2022-08-08T20:09:56.064Z,99657.28
2022-08-08T20:12:32.123Z,99640.25
2022-08-08T20:18:00.836Z,99654.75
2022-08-08T20:20:33.019Z,99663.84
2022-08-08T20:23:04.682Z,99658.81
2022-08-08T20:25:42.212Z,99655.66
2022-08-08T20:28:18.584Z,99635.94
2022-08-08T20:30:56.005Z,99658.75
2022-08-08T20:33:28.339Z,99657.41
2022-08-08T20:36:17.820Z,99652.34
2022-08-08T20:38:50.492Z,99656.66
2022-08-08T20:41:19.252Z,99649.59
2022-08-08T20:43:48.094Z,99652.19
2022-08-08T20:46:17.527Z,99652.34
2022-08-08T20:48:49.052Z,99652.31
2022-08-08T20:51:20.807Z,99636.09
2022-08-08T20:53:59.262Z,99637.88
2022-08-08T20:56:35.803Z,99654.66
2022-08-08T20:59:20.935Z,99641.34
2022-08-08T21:02:06.747Z,99654.31
2022-08-08T21:04:36.720Z,99651.22
2022-08-08T21:07:08.325Z,99648.28
2022-08-08T21:10:02.469Z,99646.34
2022-08-08T21:12:32.282Z,99642.22
2022-08-08T21:15:07.203Z,99649.94
2022-08-08T21:17:37.652Z,99642.78
2022-08-08T21:20:07.910Z,99640.63
2022-08-08T21:22:39.563Z,99664.56
2022-08-08T21:25:17.079Z,99664.59
2022-08-08T21:28:09.222Z,99667.56
2022-08-08T21:30:34.942Z,99668.53
2022-08-08T21:33:07.918Z,99676.72
2022-08-08T21:36:16.280Z,99670.97
2022-08-08T21:38:33.901Z,99665.28
2022-08-08T21:41:02.847Z,99674.66
2022-08-08T21:43:34.119Z,99658.59
2022-08-08T21:48:05.919Z,99676.13
2022-08-08T21:48:53.233Z,99664.63
2022-08-08T21:54:18.378Z,99678.38
2022-08-08T21:54:32.398Z,99675.44
2022-08-08T21:57:02.748Z,99661.84
2022-08-08T22:00:02.894Z,99646.34
2022-08-08T22:02:23.366Z,99679.25
2022-08-08T22:04:53.503Z,99672.88
2022-08-08T22:07:39.478Z,99680.72
2022-08-08T22:10:18.697Z,99684.50
2022-08-08T22:13:17.510Z,99683.34
2022-08-08T22:15:59.565Z,99686.81
2022-08-08T22:18:30.041Z,99665.28
2022-08-08T22:21:10.846Z,99673.19
2022-08-08T22:23:49.548Z,99686.31
2022-08-08T22:26:29.928Z,99671.41
2022-08-08T22:29:04.350Z,99677.16
2022-08-08T22:32:02.385Z,99680.09
2022-08-08T22:34:33.064Z,99670.84
2022-08-08T22:37:27.654Z,99698.53
2022-08-08T22:40:00.824Z,99689.97
2022-08-08T22:42:31.736Z,99695.63
2022-08-08T22:45:03.118Z,99687.25
2022-08-08T22:47:37.630Z,99691.44
2022-08-08T22:50:26.272Z,99684.97
2022-08-08T22:54:19.534Z,99692.59
2022-08-08T22:55:59.787Z,99683.97
2022-08-08T22:58:32.967Z,99686.47
2022-08-08T23:02:04.030Z,99687.63
2022-08-08T23:04:32.003Z,99684.97
2022-08-08T23:07:02.694Z,99684.84
2022-08-08T23:09:39.291Z,99694.00
2022-08-08T23:12:39.614Z,99702.00
2022-08-08T23:16:41.665Z,99704.09
2022-08-08T23:17:58.738Z,99702.59
2022-08-08T23:20:27.774Z,99709.28
2022-08-08T23:22:57.050Z,99715.06
2022-08-08T23:25:25.295Z,99711.72
2022-08-08T23:27:54.692Z,99710.13
2022-08-08T23:30:24.417Z,99687.97
2022-08-08T23:32:52.592Z,99698.78
2022-08-08T23:35:20.386Z,99693.41
2022-08-08T23:38:02.244Z,99696.41
2022-08-08T23:40:32.036Z,99706.69
2022-08-08T23:43:02.807Z,99700.81
2022-08-08T23:49:02.526Z,99710.78
2022-08-08T23:49:03.734Z,99687.69
2022-08-08T23:51:12.765Z,99700.75
2022-08-08T23:54:39.580Z,99696.75
2022-08-08T23:56:46.973Z,99702.78
2022-08-08T23:59:17.402Z,99702.88
